sensor_id;sensor_type;location;lat;lon;timestamp;pressure;altitude;pressure_sealevel;temperature;humidity
75219;BME280;63801;49.414;19.474;2023-04-01T00:00:39;92188.91;;;7.80;72.98
75219;BME280;63801;49.414;19.474;2023-04-01T00:02:39;92191.25;;;7.82;72.91
75219;BME280;63801;49.414;19.474;2023-04-01T00:04:40;92183.56;;;7.80;72.99
75219;BME280;63801;49.414;19.474;2023-04-01T00:06:41;92184.75;;;7.83;73.33
75219;BME280;63801;49.414;19.474;2023-04-01T00:08:42;92180.91;;;7.84;73.03
75219;BME280;63801;49.414;19.474;2023-04-01T00:10:42;92192.41;;;7.84;73.11
75219;BME280;63801;49.414;19.474;2023-04-01T00:12:43;92187.03;;;7.84;73.13
75219;BME280;63801;49.414;19.474;2023-04-01T00:14:43;92187.81;;;7.85;73.29
75219;BME280;63801;49.414;19.474;2023-04-01T00:16:44;92183.56;;;7.84;73.64
75219;BME280;63801;49.414;19.474;2023-04-01T00:18:45;92180.50;;;7.82;73.47
75219;BME280;63801;49.414;19.474;2023-04-01T00:20:49;92169.78;;;7.82;73.66
75219;BME280;63801;49.414;19.474;2023-04-01T00:22:49;92178.22;;;7.84;73.45
75219;BME280;63801;49.414;19.474;2023-04-01T00:24:50;92171.34;;;7.83;73.45
75219;BME280;63801;49.414;19.474;2023-04-01T00:26:50;92165.91;;;7.79;73.49
75219;BME280;63801;49.414;19.474;2023-04-01T00:28:50;92171.34;;;7.83;73.55
75219;BME280;63801;49.414;19.474;2023-04-01T00:30:51;92173.25;;;7.82;73.58
75219;BME280;63801;49.414;19.474;2023-04-01T00:32:52;92176.63;;;7.79;73.86
75219;BME280;63801;49.414;19.474;2023-04-01T00:34:53;92172.06;;;7.80;73.87
75219;BME280;63801;49.414;19.474;2023-04-01T00:36:53;92172.06;;;7.80;73.78
75219;BME280;63801;49.414;19.474;2023-04-01T00:38:54;92169.69;;;7.75;74.18
75219;BME280;63801;49.414;19.474;2023-04-01T00:40:57;92154.31;;;7.68;74.56
75219;BME280;63801;49.414;19.474;2023-04-01T00:42:58;92164.59;;;7.62;74.21
75219;BME280;63801;49.414;19.474;2023-04-01T00:45:38;92162.31;;;7.61;74.62
75219;BME280;63801;49.414;19.474;2023-04-01T00:47:38;92163.81;;;7.58;74.42
75219;BME280;63801;49.414;19.474;2023-04-01T00:49:40;92159.53;;;7.54;74.68
75219;BME280;63801;49.414;19.474;2023-04-01T00:51:43;92150.25;;;7.44;74.71
75219;BME280;63801;49.414;19.474;2023-04-01T00:53:50;92163.31;;;7.49;74.78
75219;BME280;63801;49.414;19.474;2023-04-01T00:55:55;92162.88;;;7.44;74.75
75219;BME280;63801;49.414;19.474;2023-04-01T00:57:56;92154.84;;;7.44;74.54
75219;BME280;63801;49.414;19.474;2023-04-01T00:59:59;92163.22;;;7.39;74.61
75219;BME280;63801;49.414;19.474;2023-04-01T01:02:01;92164.69;;;7.33;74.77
75219;BME280;63801;49.414;19.474;2023-04-01T01:04:02;92160.41;;;7.28;74.89
75219;BME280;63801;49.414;19.474;2023-04-01T01:10:38;92160.69;;;7.16;75.42
75219;BME280;63801;49.414;19.474;2023-04-01T01:15:13;92163.25;;;7.09;75.40
75219;BME280;63801;49.414;19.474;2023-04-01T01:17:58;92172.91;;;7.17;75.41
75219;BME280;63801;49.414;19.474;2023-04-01T01:19:57;92170.22;;;7.17;75.35
75219;BME280;63801;49.414;19.474;2023-04-01T01:27:11;92182.19;;;7.23;75.39
75219;BME280;63801;49.414;19.474;2023-04-01T01:29:32;92167.66;;;7.24;75.32
75219;BME280;63801;49.414;19.474;2023-04-01T01:33:47;92179.91;;;7.25;74.74
75219;BME280;63801;49.414;19.474;2023-04-01T01:35:54;92192.16;;;7.26;75.19
75219;BME280;63801;49.414;19.474;2023-04-01T01:38:11;92181.06;;;7.24;75.29
75219;BME280;63801;49.414;19.474;2023-04-01T01:40:14;92179.13;;;7.21;75.12
75219;BME280;63801;49.414;19.474;2023-04-01T01:42:16;92181.88;;;7.28;75.38
75219;BME280;63801;49.414;19.474;2023-04-01T01:44:18;92174.59;;;7.29;75.25
75219;BME280;63801;49.414;19.474;2023-04-01T01:46:22;92183.41;;;7.29;75.28
75219;BME280;63801;49.414;19.474;2023-04-01T01:48:26;92183.00;;;7.27;75.25
75219;BME280;63801;49.414;19.474;2023-04-01T01:50:28;92181.88;;;7.28;74.94
75219;BME280;63801;49.414;19.474;2023-04-01T01:52:28;92186.09;;;7.29;75.06
75219;BME280;63801;49.414;19.474;2023-04-01T01:54:29;92179.16;;;7.25;75.32
75219;BME280;63801;49.414;19.474;2023-04-01T01:56:30;92190.66;;;7.25;75.13
75219;BME280;63801;49.414;19.474;2023-04-01T01:58:34;92190.66;;;7.25;75.37
75219;BME280;63801;49.414;19.474;2023-04-01T02:00:44;92192.91;;;7.23;75.33
75219;BME280;63801;49.414;19.474;2023-04-01T02:02:47;92191.34;;;7.22;75.54
75219;BME280;63801;49.414;19.474;2023-04-01T02:04:49;92189.09;;;7.24;75.39
75219;BME280;63801;49.414;19.474;2023-04-01T02:06:54;92194.44;;;7.24;75.58
75219;BME280;63801;49.414;19.474;2023-04-01T02:09:03;92195.22;;;7.25;75.48
75219;BME280;63801;49.414;19.474;2023-04-01T02:11:10;92193.69;;;7.23;75.30
75219;BME280;63801;49.414;19.474;2023-04-01T02:13:27;92195.91;;;7.18;75.71
75219;BME280;63801;49.414;19.474;2023-04-01T02:15:28;92191.72;;;7.20;75.77
75219;BME280;63801;49.414;19.474;2023-04-01T02:17:32;92171.69;;;7.07;75.83
75219;BME280;63801;49.414;19.474;2023-04-01T02:19:56;92188.91;;;7.10;75.90
75219;BME280;63801;49.414;19.474;2023-04-01T02:21:59;92194.22;;;7.06;75.96
75219;BME280;63801;49.414;19.474;2023-04-01T02:24:04;92174.28;;;7.04;76.04
75219;BME280;63801;49.414;19.474;2023-04-01T02:26:07;92192.00;;;7.12;75.93
75219;BME280;63801;49.414;19.474;2023-04-01T02:28:10;92190.47;;;7.11;75.90
75219;BME280;63801;49.414;19.474;2023-04-01T02:30:14;92198.19;;;7.16;75.82
75219;BME280;63801;49.414;19.474;2023-04-01T02:32:19;92199.31;;;7.15;75.82
75219;BME280;63801;49.414;19.474;2023-04-01T02:34:22;92195.13;;;7.17;75.77
75219;BME280;63801;49.414;19.474;2023-04-01T02:36:23;92198.22;;;7.19;75.68
75219;BME280;63801;49.414;19.474;2023-04-01T02:38:23;92189.75;;;7.17;75.99
75219;BME280;63801;49.414;19.474;2023-04-01T02:40:23;92185.19;;;7.18;75.72
75219;BME280;63801;49.414;19.474;2023-04-01T02:42:24;92190.50;;;7.14;75.74
75219;BME280;63801;49.414;19.474;2023-04-01T02:44:25;92187.03;;;7.14;75.84
75219;BME280;63801;49.414;19.474;2023-04-01T02:46:25;92191.28;;;7.15;75.71
75219;BME280;63801;49.414;19.474;2023-04-01T02:48:25;92196.63;;;7.15;75.74
75219;BME280;63801;49.414;19.474;2023-04-01T02:50:25;92191.28;;;7.15;75.65
75219;BME280;63801;49.414;19.474;2023-04-01T02:52:27;92189.75;;;7.17;75.63
75219;BME280;63801;49.414;19.474;2023-04-01T02:54:28;92194.34;;;7.17;75.54
75219;BME280;63801;49.414;19.474;2023-04-01T02:56:28;92185.84;;;7.08;75.72
75219;BME280;63801;49.414;19.474;2023-04-01T02:58:28;92208.22;;;7.22;75.42
75219;BME280;63801;49.414;19.474;2023-04-01T03:00:29;92209.75;;;7.23;75.43
75219;BME280;63801;49.414;19.474;2023-04-01T03:02:30;92211.28;;;7.21;75.41
75219;BME280;63801;49.414;19.474;2023-04-01T03:04:30;92207.44;;;7.22;75.39
75219;BME280;63801;49.414;19.474;2023-04-01T03:06:30;92206.63;;;7.18;75.58
75219;BME280;63801;49.414;19.474;2023-04-01T03:08:31;92212.75;;;7.18;75.44
75219;BME280;63801;49.414;19.474;2023-04-01T03:10:31;92211.19;;;7.17;75.60
75219;BME280;63801;49.414;19.474;2023-04-01T03:12:31;92205.75;;;7.10;75.59
75219;BME280;63801;49.414;19.474;2023-04-01T03:14:32;92203.44;;;7.09;75.85
75219;BME280;63801;49.414;19.474;2023-04-01T03:16:32;92213.50;;;7.15;75.58
75219;BME280;63801;49.414;19.474;2023-04-01T03:18:33;92218.06;;;7.15;75.64
75219;BME280;63801;49.414;19.474;2023-04-01T03:20:33;92208.91;;;7.16;75.62
75219;BME280;63801;49.414;19.474;2023-04-01T03:22:34;92210.44;;;7.17;75.52
75219;BME280;63801;49.414;19.474;2023-04-01T03:24:35;92195.91;;;7.18;75.56
75219;BME280;63801;49.414;19.474;2023-04-01T03:26:36;92200.56;;;7.21;75.30
75219;BME280;63801;49.414;19.474;2023-04-01T03:28:36;92192.78;;;7.12;75.35
75219;BME280;63801;49.414;19.474;2023-04-01T03:30:37;92190.53;;;7.18;75.52
75219;BME280;63801;49.414;19.474;2023-04-01T03:32:37;92187.47;;;7.16;75.55
75219;BME280;63801;49.414;19.474;2023-04-01T03:34:37;92190.50;;;7.14;75.44
75219;BME280;63801;49.414;19.474;2023-04-01T03:36:37;92192.78;;;7.12;75.36
75219;BME280;63801;49.414;19.474;2023-04-01T03:38:40;92176.56;;;7.02;75.53
75219;BME280;63801;49.414;19.474;2023-04-01T03:40:42;92191.53;;;7.03;75.32
75219;BME280;63801;49.414;19.474;2023-04-01T03:42:42;92189.19;;;7.01;75.49
75219;BME280;63801;49.414;19.474;2023-04-01T03:44:43;92204.03;;;6.95;75.43
75219;BME280;63801;49.414;19.474;2023-04-01T03:46:43;92195.25;;;6.95;75.42
75219;BME280;63801;49.414;19.474;2023-04-01T03:48:43;92192.16;;;6.93;75.27
75219;BME280;63801;49.414;19.474;2023-04-01T03:50:44;92194.00;;;6.89;75.75
75219;BME280;63801;49.414;19.474;2023-04-01T03:52:44;92195.56;;;6.90;75.54
75219;BME280;63801;49.414;19.474;2023-04-01T03:54:45;92190.88;;;6.83;75.46
75219;BME280;63801;49.414;19.474;2023-04-01T03:56:46;92198.56;;;6.85;75.87
75219;BME280;63801;49.414;19.474;2023-04-01T03:58:46;92198.13;;;6.83;75.93
75219;BME280;63801;49.414;19.474;2023-04-01T04:00:46;92204.22;;;6.80;75.90
75219;BME280;63801;49.414;19.474;2023-04-01T04:02:47;92204.19;;;6.76;76.47
75219;BME280;63801;49.414;19.474;2023-04-01T04:04:47;92184.44;;;6.61;76.17
75219;BME280;63801;49.414;19.474;2023-04-01T04:06:47;92201.06;;;6.74;76.39
75219;BME280;63801;49.414;19.474;2023-04-01T04:08:48;92202.53;;;6.68;76.28
75219;BME280;63801;49.414;19.474;2023-04-01T04:10:54;92195.25;;;6.68;76.43
75219;BME280;63801;49.414;19.474;2023-04-01T04:12:56;92201.69;;;6.64;76.47
75219;BME280;63801;49.414;19.474;2023-04-01T04:14:56;92202.03;;;6.59;76.31
75219;BME280;63801;49.414;19.474;2023-04-01T04:16:57;92203.88;;;6.55;76.53
75219;BME280;63801;49.414;19.474;2023-04-01T04:18:57;92211.13;;;6.54;76.50
75219;BME280;63801;49.414;19.474;2023-04-01T04:20:58;92202.28;;;6.50;76.91
75219;BME280;63801;49.414;19.474;2023-04-01T04:23:00;92200.34;;;6.51;77.13
75219;BME280;63801;49.414;19.474;2023-04-01T04:25:00;92197.28;;;6.49;77.16
75219;BME280;63801;49.414;19.474;2023-04-01T04:27:01;92200.31;;;6.47;77.55
75219;BME280;63801;49.414;19.474;2023-04-01T04:29:02;92202.63;;;6.49;77.63
75219;BME280;63801;49.414;19.474;2023-04-01T04:31:03;92197.69;;;6.51;77.35
75219;BME280;63801;49.414;19.474;2023-04-01T04:33:07;92199.19;;;6.48;77.29
75219;BME280;63801;49.414;19.474;2023-04-01T04:35:08;92194.25;;;6.50;77.36
75219;BME280;63801;49.414;19.474;2023-04-01T04:37:08;92194.25;;;6.50;77.51
75219;BME280;63801;49.414;19.474;2023-04-01T04:39:09;92181.81;;;6.39;77.77
75219;BME280;63801;49.414;19.474;2023-04-01T04:41:10;92194.25;;;6.50;77.98
75219;BME280;63801;49.414;19.474;2023-04-01T04:43:14;92188.94;;;6.54;78.02
75219;BME280;63801;49.414;19.474;2023-04-01T04:45:15;92194.31;;;6.54;77.87
75219;BME280;63801;49.414;19.474;2023-04-01T04:47:15;92186.31;;;6.57;77.95
75219;BME280;63801;49.414;19.474;2023-04-01T04:49:15;92182.91;;;6.60;77.57
75219;BME280;63801;49.414;19.474;2023-04-01T04:51:17;92187.91;;;6.62;77.78
75219;BME280;63801;49.414;19.474;2023-04-01T04:53:19;92184.41;;;6.58;77.86
75219;BME280;63801;49.414;19.474;2023-04-01T04:55:19;92192.09;;;6.59;77.58
75219;BME280;63801;49.414;19.474;2023-04-01T04:57:20;92203.63;;;6.63;77.54
75219;BME280;63801;49.414;19.474;2023-04-01T04:59:20;92199.00;;;6.64;76.88
75219;BME280;63801;49.414;19.474;2023-04-01T05:01:22;92201.34;;;6.65;77.66
75219;BME280;63801;49.414;19.474;2023-04-01T05:03:22;92203.66;;;6.67;77.37
75219;BME280;63801;49.414;19.474;2023-04-01T05:05:22;92205.56;;;6.66;77.62
75219;BME280;63801;49.414;19.474;2023-04-01T05:07:23;92208.25;;;6.66;77.76
75219;BME280;63801;49.414;19.474;2023-04-01T05:09:23;92213.59;;;6.66;77.84
75219;BME280;63801;49.414;19.474;2023-04-01T05:11:24;92198.66;;;6.65;78.01
75219;BME280;63801;49.414;19.474;2023-04-01T05:13:26;92204.84;;;6.69;77.97
75219;BME280;63801;49.414;19.474;2023-04-01T05:15:26;92196.81;;;6.69;77.90
75219;BME280;63801;49.414;19.474;2023-04-01T05:17:26;92201.53;;;6.80;77.86
75219;BME280;63801;49.414;19.474;2023-04-01T05:19:26;92203.91;;;6.85;77.99
75219;BME280;63801;49.414;19.474;2023-04-01T05:21:27;92206.28;;;6.90;77.83
75219;BME280;63801;49.414;19.474;2023-04-01T05:23:27;92202.56;;;6.98;77.68
75219;BME280;63801;49.414;19.474;2023-04-01T05:25:27;92195.38;;;7.05;77.41
75219;BME280;63801;49.414;19.474;2023-04-01T05:27:28;92198.03;;;7.05;77.34
75219;BME280;63801;49.414;19.474;2023-04-01T05:29:28;92198.09;;;7.09;77.17
75219;BME280;63801;49.414;19.474;2023-04-01T05:31:29;92192.28;;;7.03;77.19
75219;BME280;63801;49.414;19.474;2023-04-01T05:33:30;92218.03;;;7.11;76.92
75219;BME280;63801;49.414;19.474;2023-04-01T05:35:30;92213.06;;;7.13;76.99
75219;BME280;63801;49.414;19.474;2023-04-01T05:37:30;92208.91;;;7.16;76.34
75219;BME280;63801;49.414;19.474;2023-04-01T05:39:39;92213.53;;;7.19;76.98
75219;BME280;63801;49.414;19.474;2023-04-01T05:41:40;92217.38;;;7.21;76.79
75219;BME280;63801;49.414;19.474;2023-04-01T05:43:41;92216.72;;;7.28;76.75
75219;BME280;63801;49.414;19.474;2023-04-01T05:45:41;92222.88;;;7.32;76.51
75219;BME280;63801;49.414;19.474;2023-04-01T05:47:41;92219.88;;;7.37;76.83
75219;BME280;63801;49.414;19.474;2023-04-01T05:49:42;92219.16;;;7.44;76.73
75219;BME280;63801;49.414;19.474;2023-04-01T05:51:42;92221.19;;;7.50;76.63
75219;BME280;63801;49.414;19.474;2023-04-01T05:53:43;92214.69;;;7.51;76.57
75219;BME280;63801;49.414;19.474;2023-04-01T05:55:43;92219.34;;;7.58;76.83
75219;BME280;63801;49.414;19.474;2023-04-01T05:57:45;92212.88;;;7.62;76.50
75219;BME280;63801;49.414;19.474;2023-04-01T05:59:46;92216.38;;;7.66;76.32
75219;BME280;63801;49.414;19.474;2023-04-01T06:01:46;92212.19;;;7.69;76.24
75219;BME280;63801;49.414;19.474;2023-04-01T06:03:47;92206.44;;;7.71;76.24
75219;BME280;63801;49.414;19.474;2023-04-01T06:05:47;92208.09;;;7.79;76.04
75219;BME280;63801;49.414;19.474;2023-04-01T06:07:47;92206.59;;;7.85;76.06
75219;BME280;63801;49.414;19.474;2023-04-01T06:09:48;92207.81;;;7.91;75.67
75219;BME280;63801;49.414;19.474;2023-04-01T06:12:29;92201.41;;;8.06;75.54
75219;BME280;63801;49.414;19.474;2023-04-01T06:14:52;92216.88;;;8.20;74.82
75219;BME280;63801;49.414;19.474;2023-04-01T06:30:52;92191.03;;;13.37;66.24
75219;BME280;63801;49.414;19.474;2023-04-01T06:35:51;92205.97;;;13.53;63.09
75219;BME280;63801;49.414;19.474;2023-04-01T06:45:55;92213.13;;;12.91;61.23
75219;BME280;63801;49.414;19.474;2023-04-01T06:53:07;92223.28;;;11.31;63.72
75219;BME280;63801;49.414;19.474;2023-04-01T06:55:27;92220.28;;;10.97;64.21
75219;BME280;63801;49.414;19.474;2023-04-01T06:57:38;92221.81;;;10.63;64.60
75219;BME280;63801;49.414;19.474;2023-04-01T06:59:41;92229.50;;;10.50;65.28
75219;BME280;63801;49.414;19.474;2023-04-01T07:01:54;92227.22;;;10.34;65.33
75219;BME280;63801;49.414;19.474;2023-04-01T07:04:18;92223.72;;;10.20;65.85
75219;BME280;63801;49.414;19.474;2023-04-01T07:06:28;92232.94;;;10.15;66.11
75219;BME280;63801;49.414;19.474;2023-04-01T07:08:34;92232.88;;;10.05;66.06
75219;BME280;63801;49.414;19.474;2023-04-01T07:12:47;92220.56;;;9.93;66.19
75219;BME280;63801;49.414;19.474;2023-04-01T07:14:50;92234.78;;;9.90;66.55
75219;BME280;63801;49.414;19.474;2023-04-01T07:19:33;92219.13;;;10.84;66.95
75219;BME280;63801;49.414;19.474;2023-04-01T07:23:43;92215.22;;;13.18;64.35
75219;BME280;63801;49.414;19.474;2023-04-01T07:25:47;92213.25;;;14.20;60.20
75219;BME280;63801;49.414;19.474;2023-04-01T07:28:03;92210.31;;;14.88;59.06
75219;BME280;63801;49.414;19.474;2023-04-01T07:30:17;92205.34;;;14.86;57.71
75219;BME280;63801;49.414;19.474;2023-04-01T07:32:40;92204.59;;;14.59;58.53
75219;BME280;63801;49.414;19.474;2023-04-01T07:37:17;92218.19;;;13.64;57.14
75219;BME280;63801;49.414;19.474;2023-04-01T07:41:51;92211.81;;;13.06;58.58
75219;BME280;63801;49.414;19.474;2023-04-01T07:46:11;92216.81;;;13.12;58.47
75219;BME280;63801;49.414;19.474;2023-04-01T07:52:31;92227.56;;;12.71;58.38
75219;BME280;63801;49.414;19.474;2023-04-01T07:55:08;92231.38;;;12.22;58.50
75219;BME280;63801;49.414;19.474;2023-04-01T07:57:14;92223.44;;;11.93;59.70
75219;BME280;63801;49.414;19.474;2023-04-01T07:59:28;92224.25;;;11.83;59.99
75219;BME280;63801;49.414;19.474;2023-04-01T08:01:55;92221.63;;;11.73;59.85
75219;BME280;63801;49.414;19.474;2023-04-01T08:11:28;92219.50;;;10.86;60.93
75219;BME280;63801;49.414;19.474;2023-04-01T08:15:58;92217.59;;;10.62;61.37
75219;BME280;63801;49.414;19.474;2023-04-01T08:20:37;92235.63;;;12.23;61.44
75219;BME280;63801;49.414;19.474;2023-04-01T08:25:25;92222.09;;;14.54;57.79
75219;BME280;63801;49.414;19.474;2023-04-01T08:29:44;92214.00;;;15.87;53.32
75219;BME280;63801;49.414;19.474;2023-04-01T08:32:22;92207.78;;;16.61;53.88
75219;BME280;63801;49.414;19.474;2023-04-01T08:34:30;92215.56;;;17.12;53.96
75219;BME280;63801;49.414;19.474;2023-04-01T08:36:42;92215.03;;;16.84;50.87
75219;BME280;63801;49.414;19.474;2023-04-01T08:38:49;92227.09;;;16.47;50.98
75219;BME280;63801;49.414;19.474;2023-04-01T08:41:00;92232.13;;;15.73;50.61
75219;BME280;63801;49.414;19.474;2023-04-01T08:47:24;92221.56;;;14.90;52.05
75219;BME280;63801;49.414;19.474;2023-04-01T08:49:36;92215.34;;;14.39;51.88
75219;BME280;63801;49.414;19.474;2023-04-01T08:51:53;92222.63;;;13.85;52.79
75219;BME280;63801;49.414;19.474;2023-04-01T08:59:27;92226.69;;;12.33;55.68
75219;BME280;63801;49.414;19.474;2023-04-01T09:02:04;92226.06;;;12.11;56.54
75219;BME280;63801;49.414;19.474;2023-04-01T09:15:53;92232.47;;;11.55;58.43
75219;BME280;63801;49.414;19.474;2023-04-01T09:23:16;92215.78;;;11.81;58.45
75219;BME280;63801;49.414;19.474;2023-04-01T09:25:37;92220.44;;;11.77;58.35
75219;BME280;63801;49.414;19.474;2023-04-01T09:27:56;92229.31;;;11.67;57.97
75219;BME280;63801;49.414;19.474;2023-04-01T09:30:11;92225.91;;;11.52;58.24
75219;BME280;63801;49.414;19.474;2023-04-01T09:34:30;92235.16;;;11.51;59.46
75219;BME280;63801;49.414;19.474;2023-04-01T09:36:46;92233.25;;;11.38;59.50
75219;BME280;63801;49.414;19.474;2023-04-01T09:38:59;92246.78;;;11.20;59.55
75219;BME280;63801;49.414;19.474;2023-04-01T09:41:22;92240.25;;;11.14;60.08
75219;BME280;63801;49.414;19.474;2023-04-01T09:51:10;92265.69;;;11.02;60.91
75219;BME280;63801;49.414;19.474;2023-04-01T09:53:43;92252.63;;;10.97;60.73
75219;BME280;63801;49.414;19.474;2023-04-01T10:13:59;92268.00;;;10.51;62.43
75219;BME280;63801;49.414;19.474;2023-04-01T10:23:08;92270.66;;;11.28;62.05
75219;BME280;63801;49.414;19.474;2023-04-01T10:25:30;92264.81;;;11.62;62.23
75219;BME280;63801;49.414;19.474;2023-04-01T10:28:11;92261.69;;;11.81;61.03
75219;BME280;63801;49.414;19.474;2023-04-01T10:36:59;92271.28;;;12.62;59.34
75219;BME280;63801;49.414;19.474;2023-04-01T10:39:17;92269.75;;;12.61;59.01
75219;BME280;63801;49.414;19.474;2023-04-01T10:41:44;92276.00;;;12.51;58.94
75219;BME280;63801;49.414;19.474;2023-04-01T10:48:32;92277.81;;;11.95;59.90
75219;BME280;63801;49.414;19.474;2023-04-01T10:52:56;92279.06;;;11.73;60.35
75219;BME280;63801;49.414;19.474;2023-04-01T10:55:25;92274.06;;;11.68;60.24
75219;BME280;63801;49.414;19.474;2023-04-01T10:57:37;92274.06;;;11.68;60.27
75219;BME280;63801;49.414;19.474;2023-04-01T11:21:15;92269.31;;;12.00;61.51
75219;BME280;63801;49.414;19.474;2023-04-01T11:23:48;92282.06;;;12.03;61.19
75219;BME280;63801;49.414;19.474;2023-04-01T11:30:39;92261.59;;;12.02;62.03
75219;BME280;63801;49.414;19.474;2023-04-01T11:33:00;92264.88;;;12.35;61.58
75219;BME280;63801;49.414;19.474;2023-04-01T11:35:13;92263.19;;;12.58;61.00
75219;BME280;63801;49.414;19.474;2023-04-01T11:40:02;92267.16;;;12.98;60.03
75219;BME280;63801;49.414;19.474;2023-04-01T11:42:40;92265.56;;;13.04;59.84
75219;BME280;63801;49.414;19.474;2023-04-01T11:52:25;92272.09;;;13.11;59.56
75219;BME280;63801;49.414;19.474;2023-04-01T11:54:54;92285.28;;;13.05;59.24
75219;BME280;63801;49.414;19.474;2023-04-01T11:57:28;92287.63;;;12.99;59.50
75219;BME280;63801;49.414;19.474;2023-04-01T11:59:50;92289.59;;;12.95;59.54
75219;BME280;63801;49.414;19.474;2023-04-01T12:06:48;92289.75;;;12.74;59.58
75219;BME280;63801;49.414;19.474;2023-04-01T12:09:18;92301.44;;;12.57;59.68
75219;BME280;63801;49.414;19.474;2023-04-01T12:13:41;92297.63;;;12.51;60.59
75219;BME280;63801;49.414;19.474;2023-04-01T12:54:35;92288.84;;;12.88;57.99
75219;BME280;63801;49.414;19.474;2023-04-01T12:56:53;92302.81;;;12.86;58.28
75219;BME280;63801;49.414;19.474;2023-04-01T13:01:29;92309.84;;;12.73;58.78
75219;BME280;63801;49.414;19.474;2023-04-01T13:03:56;92307.91;;;12.70;58.87
75219;BME280;63801;49.414;19.474;2023-04-01T13:08:49;92305.78;;;12.40;60.36
75219;BME280;63801;49.414;19.474;2023-04-01T13:25:00;92312.25;;;11.49;62.65
75219;BME280;63801;49.414;19.474;2023-04-01T13:27:18;92319.97;;;11.54;62.96
75219;BME280;63801;49.414;19.474;2023-04-01T13:29:31;92306.47;;;11.57;63.10
75219;BME280;63801;49.414;19.474;2023-04-01T13:31:53;92314.53;;;11.71;63.21
75219;BME280;63801;49.414;19.474;2023-04-01T13:34:17;92314.91;;;11.81;63.21
75219;BME280;63801;49.414;19.474;2023-04-01T13:45:24;92331.13;;;11.56;63.00
75219;BME280;63801;49.414;19.474;2023-04-01T13:49:45;92329.66;;;11.19;63.21
75219;BME280;63801;49.414;19.474;2023-04-01T14:01:35;92336.16;;;10.65;65.12
75219;BME280;63801;49.414;19.474;2023-04-01T14:03:44;92332.69;;;10.65;65.21
75219;BME280;63801;49.414;19.474;2023-04-01T14:06:02;92333.47;;;10.62;65.18
75219;BME280;63801;49.414;19.474;2023-04-01T14:12:50;92333.06;;;10.53;65.63
75219;BME280;63801;49.414;19.474;2023-04-01T14:24:42;92335.03;;;10.80;65.65
75219;BME280;63801;49.414;19.474;2023-04-01T14:29:25;92322.72;;;10.90;65.44
75219;BME280;63801;49.414;19.474;2023-04-01T14:41:45;92348.53;;;10.88;65.76
75219;BME280;63801;49.414;19.474;2023-04-01T14:46:11;92340.03;;;10.86;65.90
75219;BME280;63801;49.414;19.474;2023-04-01T14:50:45;92351.97;;;10.85;65.82
75219;BME280;63801;49.414;19.474;2023-04-01T14:52:57;92334.28;;;10.84;65.88
75219;BME280;63801;49.414;19.474;2023-04-01T14:54:58;92330.03;;;10.79;65.76
75219;BME280;63801;49.414;19.474;2023-04-01T14:57:20;92345.81;;;10.91;65.34
75219;BME280;63801;49.414;19.474;2023-04-01T15:04:10;92350.06;;;11.03;65.49
75219;BME280;63801;49.414;19.474;2023-04-01T15:11:27;92345.81;;;10.80;65.59
75219;BME280;63801;49.414;19.474;2023-04-01T15:13:58;92355.78;;;10.62;66.03
75219;BME280;63801;49.414;19.474;2023-04-01T15:18:11;92358.00;;;10.28;66.73
75219;BME280;63801;49.414;19.474;2023-04-01T15:20:25;92339.50;;;10.16;66.90
75219;BME280;63801;49.414;19.474;2023-04-01T15:22:51;92353.34;;;10.18;67.57
75219;BME280;63801;49.414;19.474;2023-04-01T15:27:29;92363.25;;;10.00;68.06
75219;BME280;63801;49.414;19.474;2023-04-01T15:31:56;92363.53;;;9.77;68.65
75219;BME280;63801;49.414;19.474;2023-04-01T15:36:38;92373.88;;;9.72;69.13
75219;BME280;63801;49.414;19.474;2023-04-01T15:38:49;92373.81;;;9.65;69.29
75219;BME280;63801;49.414;19.474;2023-04-01T15:41:02;92364.56;;;9.55;69.18
75219;BME280;63801;49.414;19.474;2023-04-01T15:45:58;92379.53;;;9.56;69.36
75219;BME280;63801;49.414;19.474;2023-04-01T15:48:02;92375.69;;;9.54;69.90
75219;BME280;63801;49.414;19.474;2023-04-01T15:52:23;92387.22;;;9.51;70.05
75219;BME280;63801;49.414;19.474;2023-04-01T16:01:37;92393.66;;;9.39;70.48
75219;BME280;63801;49.414;19.474;2023-04-01T16:03:54;92399.06;;;9.42;70.17
75219;BME280;63801;49.414;19.474;2023-04-01T16:06:14;92397.91;;;9.43;70.69
75219;BME280;63801;49.414;19.474;2023-04-01T16:15:50;92386.91;;;9.63;70.90
75219;BME280;63801;49.414;19.474;2023-04-01T16:20:42;92393.84;;;9.64;70.84
75219;BME280;63801;49.414;19.474;2023-04-01T16:29:35;92402.59;;;9.54;70.96
75219;BME280;63801;49.414;19.474;2023-04-01T16:32:04;92401.81;;;9.50;71.09
75219;BME280;63801;49.414;19.474;2023-04-01T16:36:44;92404.47;;;9.46;71.12
75219;BME280;63801;49.414;19.474;2023-04-01T16:47:22;92418.72;;;9.02;71.30
75219;BME280;63801;49.414;19.474;2023-04-01T16:49:32;92419.41;;;8.92;71.53
75219;BME280;63801;49.414;19.474;2023-04-01T16:54:24;92434.44;;;8.64;71.71
75219;BME280;63801;49.414;19.474;2023-04-01T16:56:38;92439.75;;;8.56;71.76
75219;BME280;63801;49.414;19.474;2023-04-01T17:00:50;92446.44;;;8.36;72.25
75219;BME280;63801;49.414;19.474;2023-04-01T17:05:11;92451.50;;;8.15;72.48
75219;BME280;63801;49.414;19.474;2023-04-01T17:07:23;92449.88;;;8.07;72.67
75219;BME280;63801;49.414;19.474;2023-04-01T17:09:38;92452.03;;;7.98;72.74
75219;BME280;63801;49.414;19.474;2023-04-01T17:14:18;92460.22;;;7.79;72.93
75219;BME280;63801;49.414;19.474;2023-04-01T17:16:46;92465.16;;;7.77;72.83
75219;BME280;63801;49.414;19.474;2023-04-01T17:26:42;92475.38;;;7.67;73.21
75219;BME280;63801;49.414;19.474;2023-04-01T17:40:43;92488.06;;;7.71;74.69
75219;BME280;63801;49.414;19.474;2023-04-01T17:47:34;92490.59;;;7.60;74.62
75219;BME280;63801;49.414;19.474;2023-04-01T17:49:42;92488.22;;;7.55;74.61
75219;BME280;63801;49.414;19.474;2023-04-01T18:01:46;92487.66;;;7.19;75.14
75219;BME280;63801;49.414;19.474;2023-04-01T18:17:27;92511.69;;;6.93;76.12